Ben Arnold, Texas
Current Conditions -  °F | °C
As of 6:15 AM on Friday 31 Oct 2014 (Local Time) from KT35 Reporting Station
Clear Clear  
Wind Chill: 57°   Ceiling: Unl
Heat Index: 57°   Visibility: 10mi
Dew Point: 53°   Wind: 5mph
Humidity: 88%   Direction: 330°NNW
Pressure: 30.19"   Gusts: NA
Location:  30.9882°N, 97.103°W
Report Text: KT35 311115Z AUTO 33004KT 10SM CLR 14/12 A3019 RMK AO2 T01380119
Loading
Personal Weather Stations






























Interactive Weather Map
Tropical Storm Tracking
New forecast layout! Learn more

10-Day Weather Forecast

Advertisements
Track Severe Weather on mobile